sensor_id;sensor_type;location;lat;lon;timestamp;temperature;humidity
53294;DHT22;39181;53.440;5.644;2023-09-07T00:01:48;18.00;99.90
53294;DHT22;39181;53.440;5.644;2023-09-07T00:04:14;18.10;99.90
53294;DHT22;39181;53.440;5.644;2023-09-07T00:06:42;18.00;99.90
53294;DHT22;39181;53.440;5.644;2023-09-07T00:09:09;18.10;99.90
53294;DHT22;39181;53.440;5.644;2023-09-07T00:11:37;18.10;99.90
53294;DHT22;39181;53.440;5.644;2023-09-07T00:14:02;18.00;99.90
53294;DHT22;39181;53.440;5.644;2023-09-07T00:16:28;18.10;99.90
53294;DHT22;39181;53.440;5.644;2023-09-07T00:18:54;18.10;99.90
53294;DHT22;39181;53.440;5.644;2023-09-07T00:21:19;18.10;99.90
53294;DHT22;39181;53.440;5.644;2023-09-07T00:23:45;18.10;99.90
53294;DHT22;39181;53.440;5.644;2023-09-07T00:26:10;18.10;99.90
53294;DHT22;39181;53.440;5.644;2023-09-07T00:28:38;18.10;99.90
53294;DHT22;39181;53.440;5.644;2023-09-07T00:31:03;18.10;99.90
53294;DHT22;39181;53.440;5.644;2023-09-07T00:33:29;17.90;99.90
53294;DHT22;39181;53.440;5.644;2023-09-07T00:35:54;18.00;99.90
53294;DHT22;39181;53.440;5.644;2023-09-07T00:38:20;17.90;99.90
53294;DHT22;39181;53.440;5.644;2023-09-07T00:40:46;17.80;99.90
53294;DHT22;39181;53.440;5.644;2023-09-07T00:43:12;17.80;99.90
53294;DHT22;39181;53.440;5.644;2023-09-07T00:45:38;17.80;99.90
53294;DHT22;39181;53.440;5.644;2023-09-07T00:48:05;17.90;99.90
53294;DHT22;39181;53.440;5.644;2023-09-07T00:50:30;17.80;99.90
53294;DHT22;39181;53.440;5.644;2023-09-07T00:52:56;17.80;99.90
53294;DHT22;39181;53.440;5.644;2023-09-07T00:55:23;17.70;99.90
53294;DHT22;39181;53.440;5.644;2023-09-07T00:57:49;17.70;99.90
53294;DHT22;39181;53.440;5.644;2023-09-07T01:00:15;17.70;99.90
53294;DHT22;39181;53.440;5.644;2023-09-07T01:02:40;17.60;99.90
53294;DHT22;39181;53.440;5.644;2023-09-07T01:05:07;17.60;99.90
53294;DHT22;39181;53.440;5.644;2023-09-07T01:07:38;17.60;99.90
53294;DHT22;39181;53.440;5.644;2023-09-07T01:10:06;17.50;99.90
53294;DHT22;39181;53.440;5.644;2023-09-07T01:12:33;17.50;99.90
53294;DHT22;39181;53.440;5.644;2023-09-07T01:14:59;17.50;99.90
53294;DHT22;39181;53.440;5.644;2023-09-07T01:17:25;17.50;99.90
53294;DHT22;39181;53.440;5.644;2023-09-07T01:19:52;17.50;99.90
53294;DHT22;39181;53.440;5.644;2023-09-07T01:22:19;17.40;99.90
53294;DHT22;39181;53.440;5.644;2023-09-07T01:24:45;17.50;99.90
53294;DHT22;39181;53.440;5.644;2023-09-07T01:27:12;17.40;99.90
53294;DHT22;39181;53.440;5.644;2023-09-07T01:29:39;17.50;99.90
53294;DHT22;39181;53.440;5.644;2023-09-07T01:32:05;17.50;99.90
53294;DHT22;39181;53.440;5.644;2023-09-07T01:34:30;17.50;99.90
53294;DHT22;39181;53.440;5.644;2023-09-07T01:36:56;17.60;99.90
53294;DHT22;39181;53.440;5.644;2023-09-07T01:39:22;17.50;99.90
53294;DHT22;39181;53.440;5.644;2023-09-07T01:41:47;17.50;99.90
53294;DHT22;39181;53.440;5.644;2023-09-07T01:44:13;17.50;99.90
53294;DHT22;39181;53.440;5.644;2023-09-07T01:46:39;17.80;99.90
53294;DHT22;39181;53.440;5.644;2023-09-07T01:49:05;17.40;99.90
53294;DHT22;39181;53.440;5.644;2023-09-07T01:51:31;17.50;99.90
53294;DHT22;39181;53.440;5.644;2023-09-07T01:53:56;17.50;99.90
53294;DHT22;39181;53.440;5.644;2023-09-07T01:56:22;17.50;99.90
53294;DHT22;39181;53.440;5.644;2023-09-07T01:58:47;17.60;99.90
53294;DHT22;39181;53.440;5.644;2023-09-07T02:01:26;17.50;99.90
53294;DHT22;39181;53.440;5.644;2023-09-07T02:03:52;17.50;99.90
53294;DHT22;39181;53.440;5.644;2023-09-07T02:06:19;17.50;99.90
53294;DHT22;39181;53.440;5.644;2023-09-07T02:08:44;17.60;99.90
53294;DHT22;39181;53.440;5.644;2023-09-07T02:11:10;17.60;99.90
53294;DHT22;39181;53.440;5.644;2023-09-07T02:13:36;17.60;99.90
53294;DHT22;39181;53.440;5.644;2023-09-07T02:16:05;17.60;99.90
53294;DHT22;39181;53.440;5.644;2023-09-07T02:18:32;17.70;99.90
53294;DHT22;39181;53.440;5.644;2023-09-07T02:21:04;17.60;99.90
53294;DHT22;39181;53.440;5.644;2023-09-07T02:23:31;17.60;99.90
53294;DHT22;39181;53.440;5.644;2023-09-07T02:25:57;17.70;99.90
53294;DHT22;39181;53.440;5.644;2023-09-07T02:28:24;17.70;99.90
53294;DHT22;39181;53.440;5.644;2023-09-07T02:30:50;17.60;99.90
53294;DHT22;39181;53.440;5.644;2023-09-07T02:33:15;17.70;99.90
53294;DHT22;39181;53.440;5.644;2023-09-07T02:35:41;17.60;99.90
53294;DHT22;39181;53.440;5.644;2023-09-07T02:38:06;17.60;99.90
53294;DHT22;39181;53.440;5.644;2023-09-07T02:40:32;17.60;99.90
53294;DHT22;39181;53.440;5.644;2023-09-07T02:42:57;17.50;99.90
53294;DHT22;39181;53.440;5.644;2023-09-07T02:45:23;17.50;99.90
53294;DHT22;39181;53.440;5.644;2023-09-07T02:47:49;17.40;99.90
53294;DHT22;39181;53.440;5.644;2023-09-07T02:50:16;17.50;99.90
53294;DHT22;39181;53.440;5.644;2023-09-07T02:52:43;17.50;99.90
53294;DHT22;39181;53.440;5.644;2023-09-07T02:55:08;17.40;99.90
53294;DHT22;39181;53.440;5.644;2023-09-07T02:57:34;17.40;99.90
53294;DHT22;39181;53.440;5.644;2023-09-07T03:00:00;17.40;99.90
53294;DHT22;39181;53.440;5.644;2023-09-07T03:02:27;17.40;99.90
53294;DHT22;39181;53.440;5.644;2023-09-07T03:04:55;17.40;99.90
53294;DHT22;39181;53.440;5.644;2023-09-07T03:07:24;17.50;99.90
53294;DHT22;39181;53.440;5.644;2023-09-07T03:09:52;17.40;99.90
53294;DHT22;39181;53.440;5.644;2023-09-07T03:12:17;17.40;99.90
53294;DHT22;39181;53.440;5.644;2023-09-07T03:14:43;17.40;99.90
53294;DHT22;39181;53.440;5.644;2023-09-07T03:17:09;17.40;99.90
53294;DHT22;39181;53.440;5.644;2023-09-07T03:19:36;17.40;99.90
53294;DHT22;39181;53.440;5.644;2023-09-07T03:22:03;17.40;99.90
53294;DHT22;39181;53.440;5.644;2023-09-07T03:24:28;17.40;99.90
53294;DHT22;39181;53.440;5.644;2023-09-07T03:26:54;17.40;99.90
53294;DHT22;39181;53.440;5.644;2023-09-07T03:29:20;17.40;99.90
53294;DHT22;39181;53.440;5.644;2023-09-07T03:31:45;17.30;99.90
53294;DHT22;39181;53.440;5.644;2023-09-07T03:34:11;17.40;99.90
53294;DHT22;39181;53.440;5.644;2023-09-07T03:36:36;17.30;99.90
53294;DHT22;39181;53.440;5.644;2023-09-07T03:39:02;17.30;99.90
53294;DHT22;39181;53.440;5.644;2023-09-07T03:41:28;17.30;99.90
53294;DHT22;39181;53.440;5.644;2023-09-07T03:43:56;17.20;99.90
53294;DHT22;39181;53.440;5.644;2023-09-07T03:46:22;17.50;99.90
53294;DHT22;39181;53.440;5.644;2023-09-07T03:48:47;17.30;99.90
53294;DHT22;39181;53.440;5.644;2023-09-07T03:51:13;17.20;99.90
53294;DHT22;39181;53.440;5.644;2023-09-07T03:53:38;17.20;99.90
53294;DHT22;39181;53.440;5.644;2023-09-07T03:56:04;17.10;99.90
53294;DHT22;39181;53.440;5.644;2023-09-07T03:58:30;17.20;99.90
53294;DHT22;39181;53.440;5.644;2023-09-07T04:00:59;17.20;99.90
53294;DHT22;39181;53.440;5.644;2023-09-07T04:03:25;17.20;99.90
53294;DHT22;39181;53.440;5.644;2023-09-07T04:05:51;17.10;99.90
53294;DHT22;39181;53.440;5.644;2023-09-07T04:08:16;17.10;99.90
53294;DHT22;39181;53.440;5.644;2023-09-07T04:10:42;17.10;99.90
53294;DHT22;39181;53.440;5.644;2023-09-07T04:13:07;17.00;99.90
53294;DHT22;39181;53.440;5.644;2023-09-07T04:15:43;17.00;99.90
53294;DHT22;39181;53.440;5.644;2023-09-07T04:18:10;16.90;99.90
53294;DHT22;39181;53.440;5.644;2023-09-07T04:20:38;16.90;99.90
53294;DHT22;39181;53.440;5.644;2023-09-07T04:23:04;16.90;99.90
53294;DHT22;39181;53.440;5.644;2023-09-07T04:25:30;16.80;99.90
53294;DHT22;39181;53.440;5.644;2023-09-07T04:27:55;16.80;99.90
53294;DHT22;39181;53.440;5.644;2023-09-07T04:30:22;16.80;99.90
53294;DHT22;39181;53.440;5.644;2023-09-07T04:32:48;16.70;99.90
53294;DHT22;39181;53.440;5.644;2023-09-07T04:35:13;16.70;99.90
53294;DHT22;39181;53.440;5.644;2023-09-07T04:37:42;16.70;99.90
53294;DHT22;39181;53.440;5.644;2023-09-07T04:40:09;16.60;99.90
53294;DHT22;39181;53.440;5.644;2023-09-07T04:42:35;16.50;99.90
53294;DHT22;39181;53.440;5.644;2023-09-07T04:45:00;16.60;99.90
53294;DHT22;39181;53.440;5.644;2023-09-07T04:47:26;16.50;99.90
53294;DHT22;39181;53.440;5.644;2023-09-07T04:49:51;16.50;99.90
53294;DHT22;39181;53.440;5.644;2023-09-07T04:52:17;16.50;99.90
53294;DHT22;39181;53.440;5.644;2023-09-07T04:54:43;16.50;99.90
53294;DHT22;39181;53.440;5.644;2023-09-07T04:57:09;16.60;99.90
53294;DHT22;39181;53.440;5.644;2023-09-07T04:59:34;16.60;99.90
53294;DHT22;39181;53.440;5.644;2023-09-07T05:02:00;16.70;99.90
53294;DHT22;39181;53.440;5.644;2023-09-07T05:04:28;16.70;99.90
53294;DHT22;39181;53.440;5.644;2023-09-07T05:06:55;16.70;99.90
53294;DHT22;39181;53.440;5.644;2023-09-07T05:09:21;16.70;99.90
53294;DHT22;39181;53.440;5.644;2023-09-07T05:11:47;16.70;99.90
53294;DHT22;39181;53.440;5.644;2023-09-07T05:14:12;16.70;99.90
53294;DHT22;39181;53.440;5.644;2023-09-07T05:16:38;16.70;99.90
53294;DHT22;39181;53.440;5.644;2023-09-07T05:19:03;16.70;99.90
53294;DHT22;39181;53.440;5.644;2023-09-07T05:21:29;16.70;99.90
53294;DHT22;39181;53.440;5.644;2023-09-07T05:23:54;16.80;99.90
53294;DHT22;39181;53.440;5.644;2023-09-07T05:26:21;16.80;99.90
53294;DHT22;39181;53.440;5.644;2023-09-07T05:28:48;16.70;99.90
53294;DHT22;39181;53.440;5.644;2023-09-07T05:31:13;16.70;99.90
53294;DHT22;39181;53.440;5.644;2023-09-07T05:33:39;16.80;99.90
53294;DHT22;39181;53.440;5.644;2023-09-07T05:36:05;16.80;99.90
53294;DHT22;39181;53.440;5.644;2023-09-07T05:38:30;16.90;99.90
53294;DHT22;39181;53.440;5.644;2023-09-07T05:40:56;16.90;99.90
53294;DHT22;39181;53.440;5.644;2023-09-07T05:43:21;16.90;99.90
53294;DHT22;39181;53.440;5.644;2023-09-07T05:45:47;17.00;99.90
53294;DHT22;39181;53.440;5.644;2023-09-07T05:48:13;17.00;99.90
53294;DHT22;39181;53.440;5.644;2023-09-07T05:50:42;17.00;99.90
53294;DHT22;39181;53.440;5.644;2023-09-07T05:53:07;17.00;99.90
53294;DHT22;39181;53.440;5.644;2023-09-07T05:55:33;17.10;99.90
53294;DHT22;39181;53.440;5.644;2023-09-07T05:57:59;17.10;99.90
53294;DHT22;39181;53.440;5.644;2023-09-07T06:00:25;17.20;99.90
53294;DHT22;39181;53.440;5.644;2023-09-07T06:02:51;17.10;99.90
53294;DHT22;39181;53.440;5.644;2023-09-07T06:05:17;17.20;99.90
53294;DHT22;39181;53.440;5.644;2023-09-07T06:07:43;17.20;99.90
53294;DHT22;39181;53.440;5.644;2023-09-07T06:10:09;17.20;99.90
53294;DHT22;39181;53.440;5.644;2023-09-07T06:12:35;17.30;99.90
53294;DHT22;39181;53.440;5.644;2023-09-07T06:15:01;17.30;99.90
53294;DHT22;39181;53.440;5.644;2023-09-07T06:17:27;17.40;99.90
53294;DHT22;39181;53.440;5.644;2023-09-07T06:19:54;17.50;99.90
53294;DHT22;39181;53.440;5.644;2023-09-07T06:22:19;17.50;99.90
53294;DHT22;39181;53.440;5.644;2023-09-07T06:24:45;17.60;99.90
53294;DHT22;39181;53.440;5.644;2023-09-07T06:27:10;17.60;99.90
53294;DHT22;39181;53.440;5.644;2023-09-07T06:29:36;17.70;99.90
53294;DHT22;39181;53.440;5.644;2023-09-07T06:32:01;17.80;99.90
53294;DHT22;39181;53.440;5.644;2023-09-07T06:34:27;17.80;99.90
53294;DHT22;39181;53.440;5.644;2023-09-07T06:36:53;17.90;99.90
53294;DHT22;39181;53.440;5.644;2023-09-07T06:39:18;18.00;99.90
53294;DHT22;39181;53.440;5.644;2023-09-07T06:41:45;18.00;99.90
53294;DHT22;39181;53.440;5.644;2023-09-07T06:44:11;18.10;99.90
53294;DHT22;39181;53.440;5.644;2023-09-07T06:46:37;18.10;99.90
53294;DHT22;39181;53.440;5.644;2023-09-07T06:49:02;18.20;99.90
53294;DHT22;39181;53.440;5.644;2023-09-07T06:51:30;18.30;99.90
53294;DHT22;39181;53.440;5.644;2023-09-07T06:53:55;18.40;99.90
53294;DHT22;39181;53.440;5.644;2023-09-07T06:56:21;18.40;99.90
53294;DHT22;39181;53.440;5.644;2023-09-07T06:58:47;18.50;99.90
53294;DHT22;39181;53.440;5.644;2023-09-07T07:01:12;18.40;99.90
53294;DHT22;39181;53.440;5.644;2023-09-07T07:03:38;18.60;99.90
53294;DHT22;39181;53.440;5.644;2023-09-07T07:06:03;18.60;99.90
53294;DHT22;39181;53.440;5.644;2023-09-07T07:08:29;18.70;99.90
53294;DHT22;39181;53.440;5.644;2023-09-07T07:10:55;18.80;99.90
53294;DHT22;39181;53.440;5.644;2023-09-07T07:13:20;18.90;99.90
53294;DHT22;39181;53.440;5.644;2023-09-07T07:15:46;19.00;99.90
53294;DHT22;39181;53.440;5.644;2023-09-07T07:18:11;19.10;99.90
53294;DHT22;39181;53.440;5.644;2023-09-07T07:20:42;19.20;99.90
53294;DHT22;39181;53.440;5.644;2023-09-07T07:23:09;19.30;99.90
53294;DHT22;39181;53.440;5.644;2023-09-07T07:25:34;19.30;99.90
53294;DHT22;39181;53.440;5.644;2023-09-07T07:28:01;19.30;99.90
53294;DHT22;39181;53.440;5.644;2023-09-07T07:30:31;19.30;99.90
53294;DHT22;39181;53.440;5.644;2023-09-07T07:32:57;19.30;99.90
53294;DHT22;39181;53.440;5.644;2023-09-07T07:35:22;19.40;99.90
53294;DHT22;39181;53.440;5.644;2023-09-07T07:37:49;19.50;99.90
53294;DHT22;39181;53.440;5.644;2023-09-07T07:40:15;19.50;99.90
53294;DHT22;39181;53.440;5.644;2023-09-07T07:42:43;19.60;99.90
53294;DHT22;39181;53.440;5.644;2023-09-07T07:45:09;19.60;99.90
53294;DHT22;39181;53.440;5.644;2023-09-07T07:47:35;19.70;99.90
53294;DHT22;39181;53.440;5.644;2023-09-07T07:50:00;19.80;99.90
53294;DHT22;39181;53.440;5.644;2023-09-07T07:52:26;20.00;99.90
53294;DHT22;39181;53.440;5.644;2023-09-07T07:54:52;20.10;99.90
53294;DHT22;39181;53.440;5.644;2023-09-07T07:57:18;20.20;99.90
53294;DHT22;39181;53.440;5.644;2023-09-07T07:59:44;20.40;99.90
53294;DHT22;39181;53.440;5.644;2023-09-07T08:02:09;20.50;99.90
53294;DHT22;39181;53.440;5.644;2023-09-07T08:04:35;20.70;99.90
53294;DHT22;39181;53.440;5.644;2023-09-07T08:07:01;20.80;99.90
53294;DHT22;39181;53.440;5.644;2023-09-07T08:09:31;20.90;99.90
53294;DHT22;39181;53.440;5.644;2023-09-07T08:11:57;21.10;99.90
53294;DHT22;39181;53.440;5.644;2023-09-07T08:14:24;21.20;99.90
53294;DHT22;39181;53.440;5.644;2023-09-07T08:16:50;21.40;99.90
53294;DHT22;39181;53.440;5.644;2023-09-07T08:19:16;21.60;99.90
53294;DHT22;39181;53.440;5.644;2023-09-07T08:21:42;21.70;99.90
53294;DHT22;39181;53.440;5.644;2023-09-07T08:24:10;21.90;99.90
53294;DHT22;39181;53.440;5.644;2023-09-07T08:26:36;22.10;99.90
53294;DHT22;39181;53.440;5.644;2023-09-07T08:29:03;22.20;99.90
53294;DHT22;39181;53.440;5.644;2023-09-07T08:31:32;22.30;99.90
53294;DHT22;39181;53.440;5.644;2023-09-07T08:34:00;22.50;99.90
53294;DHT22;39181;53.440;5.644;2023-09-07T08:36:26;22.60;99.90
53294;DHT22;39181;53.440;5.644;2023-09-07T08:38:53;22.70;99.90
53294;DHT22;39181;53.440;5.644;2023-09-07T08:41:20;22.90;99.90
53294;DHT22;39181;53.440;5.644;2023-09-07T08:43:46;23.10;99.90
53294;DHT22;39181;53.440;5.644;2023-09-07T08:46:17;23.10;99.90
53294;DHT22;39181;53.440;5.644;2023-09-07T08:48:43;23.30;99.90
53294;DHT22;39181;53.440;5.644;2023-09-07T08:51:10;23.30;99.90
53294;DHT22;39181;53.440;5.644;2023-09-07T08:53:37;23.50;99.90
53294;DHT22;39181;53.440;5.644;2023-09-07T08:56:04;23.60;99.90
53294;DHT22;39181;53.440;5.644;2023-09-07T08:58:30;23.70;99.90
53294;DHT22;39181;53.440;5.644;2023-09-07T09:00:57;23.90;99.90
53294;DHT22;39181;53.440;5.644;2023-09-07T09:03:23;23.90;99.90
53294;DHT22;39181;53.440;5.644;2023-09-07T09:05:50;24.00;99.90
53294;DHT22;39181;53.440;5.644;2023-09-07T09:08:16;24.10;99.90
53294;DHT22;39181;53.440;5.644;2023-09-07T09:10:46;24.20;99.90
53294;DHT22;39181;53.440;5.644;2023-09-07T09:13:11;24.20;99.90
53294;DHT22;39181;53.440;5.644;2023-09-07T09:15:37;24.30;99.90
53294;DHT22;39181;53.440;5.644;2023-09-07T09:18:10;24.30;99.90
53294;DHT22;39181;53.440;5.644;2023-09-07T09:20:38;24.40;99.90
53294;DHT22;39181;53.440;5.644;2023-09-07T09:23:04;24.40;99.90
53294;DHT22;39181;53.440;5.644;2023-09-07T09:25:31;24.50;99.90
53294;DHT22;39181;53.440;5.644;2023-09-07T09:27:57;24.50;99.90
53294;DHT22;39181;53.440;5.644;2023-09-07T09:30:22;24.60;99.90
53294;DHT22;39181;53.440;5.644;2023-09-07T09:32:48;24.60;99.90
53294;DHT22;39181;53.440;5.644;2023-09-07T09:35:16;24.80;99.90
53294;DHT22;39181;53.440;5.644;2023-09-07T09:37:44;24.90;99.90
53294;DHT22;39181;53.440;5.644;2023-09-07T09:40:11;25.00;99.90
53294;DHT22;39181;53.440;5.644;2023-09-07T09:42:36;25.10;99.90
53294;DHT22;39181;53.440;5.644;2023-09-07T09:45:05;25.20;99.90
53294;DHT22;39181;53.440;5.644;2023-09-07T09:47:31;25.20;99.90
53294;DHT22;39181;53.440;5.644;2023-09-07T09:50:00;25.30;99.90
53294;DHT22;39181;53.440;5.644;2023-09-07T09:52:27;25.50;99.90
53294;DHT22;39181;53.440;5.644;2023-09-07T09:54:53;25.50;99.90
53294;DHT22;39181;53.440;5.644;2023-09-07T09:57:19;25.70;99.90
53294;DHT22;39181;53.440;5.644;2023-09-07T09:59:46;25.70;99.90
53294;DHT22;39181;53.440;5.644;2023-09-07T10:02:12;25.90;99.90
53294;DHT22;39181;53.440;5.644;2023-09-07T10:04:38;25.90;99.90
53294;DHT22;39181;53.440;5.644;2023-09-07T10:07:05;26.00;99.90
53294;DHT22;39181;53.440;5.644;2023-09-07T10:09:34;26.10;99.90
53294;DHT22;39181;53.440;5.644;2023-09-07T10:12:01;26.20;99.90
53294;DHT22;39181;53.440;5.644;2023-09-07T10:14:38;26.30;99.90
53294;DHT22;39181;53.440;5.644;2023-09-07T10:17:04;26.30;99.90
53294;DHT22;39181;53.440;5.644;2023-09-07T10:19:30;26.40;99.90
53294;DHT22;39181;53.440;5.644;2023-09-07T10:21:56;26.40;99.90
53294;DHT22;39181;53.440;5.644;2023-09-07T10:24:32;26.70;99.90
53294;DHT22;39181;53.440;5.644;2023-09-07T10:27:03;26.70;99.90
53294;DHT22;39181;53.440;5.644;2023-09-07T10:29:41;26.90;99.90
53294;DHT22;39181;53.440;5.644;2023-09-07T10:32:07;26.90;99.90
53294;DHT22;39181;53.440;5.644;2023-09-07T10:34:35;27.00;99.90
53294;DHT22;39181;53.440;5.644;2023-09-07T10:37:03;27.00;99.90
53294;DHT22;39181;53.440;5.644;2023-09-07T10:39:31;27.10;99.90
53294;DHT22;39181;53.440;5.644;2023-09-07T10:41:57;27.10;99.90
53294;DHT22;39181;53.440;5.644;2023-09-07T10:44:27;27.20;99.90
53294;DHT22;39181;53.440;5.644;2023-09-07T10:46:54;27.20;99.90
53294;DHT22;39181;53.440;5.644;2023-09-07T10:49:19;27.30;99.90
53294;DHT22;39181;53.440;5.644;2023-09-07T10:51:46;27.30;99.90
53294;DHT22;39181;53.440;5.644;2023-09-07T10:54:22;27.20;99.90
53294;DHT22;39181;53.440;5.644;2023-09-07T10:56:50;27.40;99.90
53294;DHT22;39181;53.440;5.644;2023-09-07T10:59:16;27.50;99.90
53294;DHT22;39181;53.440;5.644;2023-09-07T11:01:44;27.50;99.90
53294;DHT22;39181;53.440;5.644;2023-09-07T11:04:10;27.60;99.90
53294;DHT22;39181;53.440;5.644;2023-09-07T11:06:37;27.60;99.90
53294;DHT22;39181;53.440;5.644;2023-09-07T11:09:04;27.60;99.90
53294;DHT22;39181;53.440;5.644;2023-09-07T11:11:31;27.70;99.90
53294;DHT22;39181;53.440;5.644;2023-09-07T11:13:58;27.70;99.90
53294;DHT22;39181;53.440;5.644;2023-09-07T11:16:25;27.70;99.90
53294;DHT22;39181;53.440;5.644;2023-09-07T11:18:51;27.90;99.90
53294;DHT22;39181;53.440;5.644;2023-09-07T11:21:17;27.90;99.90
53294;DHT22;39181;53.440;5.644;2023-09-07T11:23:44;28.00;99.90
53294;DHT22;39181;53.440;5.644;2023-09-07T11:26:10;28.00;99.90
53294;DHT22;39181;53.440;5.644;2023-09-07T11:28:37;28.00;99.90
53294;DHT22;39181;53.440;5.644;2023-09-07T11:31:03;28.20;99.90
53294;DHT22;39181;53.440;5.644;2023-09-07T11:33:32;28.20;99.90
53294;DHT22;39181;53.440;5.644;2023-09-07T11:35:58;28.30;99.90
53294;DHT22;39181;53.440;5.644;2023-09-07T11:38:29;28.40;99.90
53294;DHT22;39181;53.440;5.644;2023-09-07T11:40:55;28.50;99.90
53294;DHT22;39181;53.440;5.644;2023-09-07T11:43:21;28.40;99.90
53294;DHT22;39181;53.440;5.644;2023-09-07T11:45:48;28.50;99.90
53294;DHT22;39181;53.440;5.644;2023-09-07T11:48:14;28.50;99.90
53294;DHT22;39181;53.440;5.644;2023-09-07T11:50:40;28.60;99.90
53294;DHT22;39181;53.440;5.644;2023-09-07T11:53:06;28.70;99.90
53294;DHT22;39181;53.440;5.644;2023-09-07T11:55:32;28.70;99.90
53294;DHT22;39181;53.440;5.644;2023-09-07T11:57:58;28.80;99.90
53294;DHT22;39181;53.440;5.644;2023-09-07T12:00:23;28.80;99.90
53294;DHT22;39181;53.440;5.644;2023-09-07T12:02:49;28.80;99.90
53294;DHT22;39181;53.440;5.644;2023-09-07T12:05:15;28.90;99.90
53294;DHT22;39181;53.440;5.644;2023-09-07T12:07:42;28.90;99.90
53294;DHT22;39181;53.440;5.644;2023-09-07T12:10:11;28.90;99.90
53294;DHT22;39181;53.440;5.644;2023-09-07T12:12:37;29.00;99.90
53294;DHT22;39181;53.440;5.644;2023-09-07T12:15:03;29.00;99.90
53294;DHT22;39181;53.440;5.644;2023-09-07T12:17:30;29.00;99.90
53294;DHT22;39181;53.440;5.644;2023-09-07T12:19:55;29.00;99.90
53294;DHT22;39181;53.440;5.644;2023-09-07T12:22:21;29.00;99.90
53294;DHT22;39181;53.440;5.644;2023-09-07T12:24:46;29.00;99.90
53294;DHT22;39181;53.440;5.644;2023-09-07T12:27:12;29.00;99.90
53294;DHT22;39181;53.440;5.644;2023-09-07T12:29:38;29.10;99.90
53294;DHT22;39181;53.440;5.644;2023-09-07T12:32:03;29.10;99.90
53294;DHT22;39181;53.440;5.644;2023-09-07T12:34:29;29.10;99.90
53294;DHT22;39181;53.440;5.644;2023-09-07T12:36:54;29.00;99.90
53294;DHT22;39181;53.440;5.644;2023-09-07T12:39:20;29.10;99.90
53294;DHT22;39181;53.440;5.644;2023-09-07T12:41:46;28.90;99.90
53294;DHT22;39181;53.440;5.644;2023-09-07T12:44:12;29.00;99.90
53294;DHT22;39181;53.440;5.644;2023-09-07T12:46:38;29.00;99.90
53294;DHT22;39181;53.440;5.644;2023-09-07T12:49:04;29.00;99.90
53294;DHT22;39181;53.440;5.644;2023-09-07T12:51:30;28.80;99.90
53294;DHT22;39181;53.440;5.644;2023-09-07T12:53:56;28.90;99.90
53294;DHT22;39181;53.440;5.644;2023-09-07T12:56:21;28.90;99.90
53294;DHT22;39181;53.440;5.644;2023-09-07T12:58:47;28.80;99.90
53294;DHT22;39181;53.440;5.644;2023-09-07T13:01:13;28.80;99.90
53294;DHT22;39181;53.440;5.644;2023-09-07T13:03:40;28.70;99.90
53294;DHT22;39181;53.440;5.644;2023-09-07T13:06:06;28.70;99.90
53294;DHT22;39181;53.440;5.644;2023-09-07T13:08:32;28.70;99.90
53294;DHT22;39181;53.440;5.644;2023-09-07T13:10:58;28.60;99.90
53294;DHT22;39181;53.440;5.644;2023-09-07T13:13:24;28.50;99.90
53294;DHT22;39181;53.440;5.644;2023-09-07T13:15:57;28.60;99.90
53294;DHT22;39181;53.440;5.644;2023-09-07T13:18:23;28.50;99.90
53294;DHT22;39181;53.440;5.644;2023-09-07T13:20:50;28.40;99.90
53294;DHT22;39181;53.440;5.644;2023-09-07T13:23:17;28.40;99.90
53294;DHT22;39181;53.440;5.644;2023-09-07T13:25:43;28.30;99.90
53294;DHT22;39181;53.440;5.644;2023-09-07T13:28:09;28.30;99.90
53294;DHT22;39181;53.440;5.644;2023-09-07T13:30:34;28.20;99.90
53294;DHT22;39181;53.440;5.644;2023-09-07T13:33:00;28.20;99.90
53294;DHT22;39181;53.440;5.644;2023-09-07T13:35:26;28.20;99.90
53294;DHT22;39181;53.440;5.644;2023-09-07T13:37:52;28.10;99.90
53294;DHT22;39181;53.440;5.644;2023-09-07T13:40:18;28.00;99.90
53294;DHT22;39181;53.440;5.644;2023-09-07T13:42:45;28.00;99.90
53294;DHT22;39181;53.440;5.644;2023-09-07T13:45:11;27.90;99.90
53294;DHT22;39181;53.440;5.644;2023-09-07T13:47:37;27.90;99.90
53294;DHT22;39181;53.440;5.644;2023-09-07T13:50:03;27.90;99.90
53294;DHT22;39181;53.440;5.644;2023-09-07T13:52:29;27.80;99.90
53294;DHT22;39181;53.440;5.644;2023-09-07T13:54:55;27.80;99.90
53294;DHT22;39181;53.440;5.644;2023-09-07T13:57:20;27.70;99.90
53294;DHT22;39181;53.440;5.644;2023-09-07T13:59:46;27.60;99.90
53294;DHT22;39181;53.440;5.644;2023-09-07T14:02:11;27.60;99.90
53294;DHT22;39181;53.440;5.644;2023-09-07T14:04:37;27.60;99.90
53294;DHT22;39181;53.440;5.644;2023-09-07T14:07:03;27.50;99.90
53294;DHT22;39181;53.440;5.644;2023-09-07T14:09:28;27.50;99.90
53294;DHT22;39181;53.440;5.644;2023-09-07T14:11:54;27.50;99.90
53294;DHT22;39181;53.440;5.644;2023-09-07T14:14:19;27.50;99.90
53294;DHT22;39181;53.440;5.644;2023-09-07T14:16:46;27.40;99.90
53294;DHT22;39181;53.440;5.644;2023-09-07T14:19:11;27.40;99.90
53294;DHT22;39181;53.440;5.644;2023-09-07T14:21:37;27.40;99.90
53294;DHT22;39181;53.440;5.644;2023-09-07T14:24:03;27.40;99.90
53294;DHT22;39181;53.440;5.644;2023-09-07T14:26:29;27.40;99.90
53294;DHT22;39181;53.440;5.644;2023-09-07T14:28:55;27.40;99.90
53294;DHT22;39181;53.440;5.644;2023-09-07T14:31:20;27.40;99.90
53294;DHT22;39181;53.440;5.644;2023-09-07T14:33:46;27.30;99.90
53294;DHT22;39181;53.440;5.644;2023-09-07T14:36:11;27.40;99.90
53294;DHT22;39181;53.440;5.644;2023-09-07T14:38:37;27.40;99.90
53294;DHT22;39181;53.440;5.644;2023-09-07T14:41:07;27.30;99.90
53294;DHT22;39181;53.440;5.644;2023-09-07T14:43:33;27.20;99.90
53294;DHT22;39181;53.440;5.644;2023-09-07T14:45:59;27.20;99.90
53294;DHT22;39181;53.440;5.644;2023-09-07T14:48:24;27.20;99.90
53294;DHT22;39181;53.440;5.644;2023-09-07T14:50:50;27.20;99.90
53294;DHT22;39181;53.440;5.644;2023-09-07T14:53:16;27.20;99.90
53294;DHT22;39181;53.440;5.644;2023-09-07T14:55:43;27.10;99.90
53294;DHT22;39181;53.440;5.644;2023-09-07T14:58:09;27.10;99.90
53294;DHT22;39181;53.440;5.644;2023-09-07T15:00:35;27.10;99.90
53294;DHT22;39181;53.440;5.644;2023-09-07T15:03:01;27.00;99.90
53294;DHT22;39181;53.440;5.644;2023-09-07T15:05:27;27.00;99.90
53294;DHT22;39181;53.440;5.644;2023-09-07T15:07:54;27.00;99.90
53294;DHT22;39181;53.440;5.644;2023-09-07T15:10:19;27.00;99.90
53294;DHT22;39181;53.440;5.644;2023-09-07T15:12:45;26.90;99.90
53294;DHT22;39181;53.440;5.644;2023-09-07T15:15:11;26.90;99.90
53294;DHT22;39181;53.440;5.644;2023-09-07T15:17:38;26.80;99.90
53294;DHT22;39181;53.440;5.644;2023-09-07T15:20:08;26.80;99.90
53294;DHT22;39181;53.440;5.644;2023-09-07T15:22:33;26.80;99.90
53294;DHT22;39181;53.440;5.644;2023-09-07T15:24:59;26.70;99.90